Time;durP1;ratioP1;P1;durP2;ratioP2;P2;SDS_P1;SDS_P2;PMS_P1;PMS_P2;Temp;Humidity;BMP_temperature;BMP_pressure;BME280_temperature;BME280_humidity;BME280_pressure;Samples;Min_cycle;Max_cycle;Signal;HPM_P1;HPM_P2
2024/03/04 00:01:04;;;;;;;19.40;6.40;;;;;;;1.43;100.00;100625.47;5036293;28;20048;-69
2024/03/04 00:03:32;;;;;;;14.03;5.97;;;;;;;1.44;100.00;100642.03;5019387;28;20403;-71
2024/03/04 00:05:59;;;;;;;17.37;6.30;;;;;;;1.45;100.00;100633.25;5036758;28;20172;-71
2024/03/04 00:08:25;;;;;;;11.30;5.87;;;;;;;1.40;100.00;100627.38;5036082;28;20048;-70
2024/03/04 00:10:51;;;;;;;17.63;6.43;;;;;;;1.39;100.00;100625.72;5020020;28;20045;-69
2024/03/04 00:13:17;;;;;;;14.07;5.83;;;;;;;1.35;100.00;100625.00;5003480;28;20060;-68
2024/03/04 00:15:44;;;;;;;17.40;5.63;;;;;;;1.33;100.00;100631.25;5019960;28;20068;-69
2024/03/04 00:18:10;;;;;;;18.07;6.50;;;;;;;1.25;100.00;100626.41;5052661;28;20037;-69
2024/03/04 00:20:36;;;;;;;11.90;5.57;;;;;;;1.22;100.00;100626.56;5035753;28;20970;-68
2024/03/04 00:23:04;;;;;;;14.07;4.93;;;;;;;1.23;100.00;100625.63;5052641;28;20048;-69
2024/03/04 00:25:31;;;;;;;13.47;6.17;;;;;;;1.18;100.00;100619.78;5019588;28;20083;-68
2024/03/04 00:27:57;;;;;;;12.93;6.07;;;;;;;1.21;100.00;100626.63;5035852;28;20048;-69
2024/03/04 00:30:26;;;;;;;11.10;5.70;;;;;;;1.17;100.00;100615.47;5019236;28;20037;-69
2024/03/04 00:32:52;;;;;;;10.63;5.00;;;;;;;1.19;100.00;100616.25;5052471;28;20123;-68
2024/03/04 00:35:19;;;;;;;14.17;6.27;;;;;;;1.20;100.00;100623.16;5052066;28;20171;-67
2024/03/04 00:37:46;;;;;;;9.53;4.90;;;;;;;1.25;100.00;100617.69;5019712;28;20044;-71
2024/03/04 00:40:12;;;;;;;14.37;5.67;;;;;;;1.15;100.00;100614.69;5019371;28;20455;-70
2024/03/04 00:42:38;;;;;;;12.63;5.33;;;;;;;1.17;100.00;100607.59;5052145;28;20036;-70
2024/03/04 00:45:05;;;;;;;12.10;5.40;;;;;;;1.23;100.00;100603.88;5002999;28;20145;-70
2024/03/04 00:47:32;;;;;;;11.03;5.40;;;;;;;1.20;100.00;100602.22;5019082;28;20476;-69
2024/03/04 00:49:58;;;;;;;14.27;5.90;;;;;;;1.21;100.00;100608.31;5054294;28;20123;-70
2024/03/04 00:52:25;;;;;;;9.33;5.20;;;;;;;1.18;100.00;100598.84;5037788;28;20047;-70
2024/03/04 00:54:51;;;;;;;12.27;5.10;;;;;;;1.14;100.00;100589.44;5005341;28;20047;-70
2024/03/04 00:57:17;;;;;;;10.97;5.63;;;;;;;1.15;100.00;100593.75;5058620;28;20040;-70
2024/03/04 00:59:43;;;;;;;11.13;5.70;;;;;;;1.07;100.00;100592.44;5045312;28;20067;-70
2024/03/04 01:02:10;;;;;;;11.47;5.17;;;;;;;1.06;100.00;100596.81;5063645;28;20044;-70
2024/03/04 01:04:36;;;;;;;13.57;6.30;;;;;;;1.06;100.00;100588.97;5022411;28;20450;-70
2024/03/04 01:07:02;;;;;;;14.67;5.60;;;;;;;1.03;100.00;100593.53;5019153;28;20040;-71
2024/03/04 01:09:28;;;;;;;17.40;6.23;;;;;;;1.02;100.00;100582.22;5035443;28;20036;-70
2024/03/04 01:11:54;;;;;;;11.90;6.20;;;;;;;1.00;100.00;100589.28;5035174;28;20102;-70
2024/03/04 01:14:20;;;;;;;14.57;5.83;;;;;;;1.09;100.00;100583.59;5002025;28;20041;-67
2024/03/04 01:16:49;;;;;;;14.43;6.10;;;;;;;1.11;100.00;100580.91;5052407;28;20114;-69
2024/03/04 01:19:17;;;;;;;12.53;5.40;;;;;;;1.14;100.00;100584.22;5051372;28;20049;-70
2024/03/04 01:21:43;;;;;;;11.63;5.73;;;;;;;1.12;100.00;100580.00;4998535;28;20052;-69
2024/03/04 01:24:10;;;;;;;10.67;5.77;;;;;;;1.08;100.00;100586.28;4982695;28;20872;-69
2024/03/04 01:26:36;;;;;;;15.13;6.53;;;;;;;1.11;100.00;100583.50;4966865;28;20044;-68
2024/03/04 01:29:08;;;;;;;15.27;5.47;;;;;;;1.12;100.00;100580.81;4998907;28;20045;-69
2024/03/04 01:31:34;;;;;;;17.07;6.37;;;;;;;1.04;100.00;100579.53;5031412;28;20443;-70
2024/03/04 01:34:02;;;;;;;16.27;6.40;;;;;;;0.94;100.00;100583.53;5014809;28;20530;-69
2024/03/04 01:36:31;;;;;;;14.40;6.17;;;;;;;0.86;100.00;100585.66;5032034;28;20040;-70
2024/03/04 01:38:58;;;;;;;12.00;5.93;;;;;;;0.90;100.00;100571.50;4977535;28;20057;-69
2024/03/04 01:41:24;;;;;;;16.73;5.73;;;;;;;0.92;100.00;100575.72;4958923;28;20054;-69
2024/03/04 01:43:51;;;;;;;12.90;6.17;;;;;;;0.91;100.00;100584.50;4990716;28;20073;-67
2024/03/04 01:46:17;;;;;;;15.57;5.60;;;;;;;0.87;100.00;100566.41;4958559;28;20039;-70
2024/03/04 01:48:43;;;;;;;12.10;6.00;;;;;;;0.84;100.00;100585.72;4958498;28;20046;-70
2024/03/04 01:51:10;;;;;;;13.33;5.63;;;;;;;0.86;100.00;100572.59;4990757;28;20526;-69
2024/03/04 01:53:37;;;;;;;16.33;6.10;;;;;;;0.79;100.00;100571.16;4926522;28;20049;-68
2024/03/04 01:56:05;;;;;;;11.40;5.90;;;;;;;0.83;100.00;100575.34;4958383;28;20042;-69
2024/03/04 01:58:32;;;;;;;13.23;5.93;;;;;;;0.74;100.00;100576.63;4974663;28;20051;-68
2024/03/04 02:01:04;;;;;;;14.77;5.40;;;;;;;0.73;100.00;100561.88;4958378;28;20594;-68
2024/03/04 02:03:31;;;;;;;12.40;5.53;;;;;;;0.74;100.00;100566.16;4974472;28;20050;-68
2024/03/04 02:05:59;;;;;;;12.47;5.73;;;;;;;0.76;100.00;100566.09;4990487;28;20100;-68
2024/03/04 02:08:25;;;;;;;16.57;5.57;;;;;;;0.69;100.00;100565.53;4958219;28;20042;-67
2024/03/04 02:10:52;;;;;;;10.60;4.93;;;;;;;0.75;100.00;100565.25;4977591;28;20045;-69
2024/03/04 02:13:20;;;;;;;11.10;5.53;;;;;;;0.73;100.00;100564.47;4998359;28;20050;-69
2024/03/04 02:15:47;;;;;;;12.87;5.17;;;;;;;0.70;100.00;100563.78;4998123;28;20056;-68
2024/03/04 02:18:15;;;;;;;11.27;5.27;;;;;;;0.61;100.00;100553.75;5014147;28;20614;-68
2024/03/04 02:20:43;;;;;;;14.10;5.83;;;;;;;0.62;100.00;100550.22;5033335;28;20086;-69
2024/03/04 02:23:11;;;;;;;13.70;6.20;;;;;;;0.54;100.00;100541.91;5000878;28;20049;-69
2024/03/04 02:25:57;;;;;;;14.77;6.30;;;;;;;0.64;100.00;100545.78;5016675;28;20380;-68
2024/03/04 02:28:27;;;;;;;13.97;6.23;;;;;;;0.50;100.00;100546.44;5051266;28;20087;-67
2024/03/04 02:30:55;;;;;;;13.80;5.73;;;;;;;0.52;100.00;100554.19;5035770;28;20454;-67
2024/03/04 02:33:22;;;;;;;13.97;5.80;;;;;;;0.55;100.00;100552.31;5071201;28;20226;-71
2024/03/04 02:35:49;;;;;;;14.80;6.27;;;;;;;0.39;100.00;100542.63;5054864;28;20041;-68
2024/03/04 02:38:19;;;;;;;13.93;5.50;;;;;;;0.42;100.00;100548.56;5071747;28;20040;-69
2024/03/04 02:40:48;;;;;;;16.23;6.40;;;;;;;0.38;100.00;100556.63;5070710;28;20058;-71
2024/03/04 02:43:16;;;;;;;14.73;5.33;;;;;;;0.39;100.00;100532.16;5066551;28;20052;-71
2024/03/04 02:45:42;;;;;;;13.83;5.87;;;;;;;0.38;100.00;100538.31;5051242;28;20086;-71
2024/03/04 02:48:09;;;;;;;13.57;6.13;;;;;;;0.35;100.00;100549.78;5050554;28;20037;-71
2024/03/04 02:50:35;;;;;;;14.20;6.00;;;;;;;0.27;100.00;100553.66;5050415;28;20110;-69
2024/03/04 02:53:02;;;;;;;18.57;6.90;;;;;;;0.27;100.00;100525.78;5016376;28;20041;-68
2024/03/04 02:55:28;;;;;;;11.40;5.53;;;;;;;0.25;100.00;100534.63;5069291;28;20094;-68
2024/03/04 02:57:54;;;;;;;14.77;6.57;;;;;;;0.17;100.00;100536.72;5054198;28;20132;-69
2024/03/04 03:00:20;;;;;;;14.63;6.30;;;;;;;0.15;100.00;100534.19;5087290;28;20135;-68
2024/03/04 03:02:47;;;;;;;14.80;6.60;;;;;;;0.16;100.00;100530.66;5069971;28;20050;-67
2024/03/04 03:05:13;;;;;;;14.10;6.37;;;;;;;0.18;100.00;100526.22;5087164;28;20378;-67
2024/03/04 03:07:40;;;;;;;20.47;7.07;;;;;;;0.21;100.00;100533.03;5038656;28;20489;-69
2024/03/04 03:10:06;;;;;;;18.57;6.87;;;;;;;0.18;100.00;100533.19;5072001;28;20147;-69
2024/03/04 03:12:32;;;;;;;20.90;6.43;;;;;;;0.09;100.00;100533.63;5070807;28;20110;-68
2024/03/04 03:14:58;;;;;;;20.00;5.90;;;;;;;0.05;100.00;100532.06;5071217;28;20053;-70
2024/03/04 03:17:25;;;;;;;17.23;6.10;;;;;;;0.03;100.00;100525.13;5054166;28;20124;-69
2024/03/04 03:19:51;;;;;;;14.67;5.80;;;;;;;-0.02;100.00;100527.09;5053738;28;20063;-76
2024/03/04 03:22:17;;;;;;;15.20;6.23;;;;;;;-0.01;100.00;100518.38;5070512;28;20064;-78
2024/03/04 03:24:44;;;;;;;17.67;6.83;;;;;;;-0.03;100.00;100522.81;5054343;28;20138;-72
2024/03/04 03:27:11;;;;;;;13.07;5.83;;;;;;;-0.04;100.00;100517.66;5036794;28;20148;-73
2024/03/04 03:29:37;;;;;;;15.90;7.10;;;;;;;-0.08;100.00;100508.28;5037156;28;20074;-71
2024/03/04 03:32:03;;;;;;;20.70;7.20;;;;;;;-0.12;100.00;100515.41;5053417;28;20045;-72
2024/03/04 03:34:29;;;;;;;15.47;6.90;;;;;;;-0.18;100.00;100507.84;5036889;28;20457;-69
2024/03/04 03:36:56;;;;;;;24.10;7.13;;;;;;;-0.29;100.00;100512.72;5021365;28;20136;-72
2024/03/04 03:39:22;;;;;;;13.73;5.93;;;;;;;-0.28;100.00;100517.00;5020867;28;20040;-73
2024/03/04 03:41:48;;;;;;;11.30;5.70;;;;;;;-0.28;100.00;100524.00;4999435;28;20088;-73
2024/03/04 03:44:14;;;;;;;15.77;5.93;;;;;;;-0.31;100.00;100511.94;4999538;28;20053;-73
2024/03/04 03:46:42;;;;;;;12.23;5.73;;;;;;;-0.26;100.00;100516.94;4984390;28;20357;-72
2024/03/04 03:49:07;;;;;;;11.77;6.00;;;;;;;-0.31;100.00;100517.16;5000677;28;20045;-81
2024/03/04 03:51:33;;;;;;;21.33;6.80;;;;;;;-0.34;100.00;100512.06;5016893;28;20045;-69
2024/03/04 03:54:00;;;;;;;13.67;6.53;;;;;;;-0.33;100.00;100505.94;5015872;28;20053;-71
2024/03/04 03:56:26;;;;;;;14.60;6.07;;;;;;;-0.28;100.00;100503.13;5003710;28;20475;-68
2024/03/04 03:58:52;;;;;;;17.50;6.30;;;;;;;-0.33;100.00;100513.78;4981837;28;20070;-69
2024/03/04 04:01:18;;;;;;;13.00;6.10;;;;;;;-0.34;100.00;100509.47;5013103;28;20511;-71
2024/03/04 04:03:44;;;;;;;14.80;5.90;;;;;;;-0.36;100.00;100502.63;5013346;28;20114;-73
2024/03/04 04:06:10;;;;;;;17.30;6.57;;;;;;;-0.36;100.00;100500.88;4980934;28;20049;-73
2024/03/04 04:08:36;;;;;;;13.67;6.73;;;;;;;-0.34;100.00;100500.81;4997106;28;20424;-74
2024/03/04 04:11:03;;;;;;;14.17;6.20;;;;;;;-0.41;100.00;100495.00;4997009;28;20083;-73
2024/03/04 04:13:29;;;;;;;17.20;7.20;;;;;;;-0.41;100.00;100495.00;5031306;28;20480;-71
2024/03/04 04:15:55;;;;;;;19.10;7.10;;;;;;;-0.45;100.00;100498.69;5038631;28;20040;-73
2024/03/04 04:18:20;;;;;;;13.77;6.13;;;;;;;-0.40;100.00;100496.69;4989118;28;20476;-72
2024/03/04 04:20:47;;;;;;;12.63;6.60;;;;;;;-0.41;100.00;100508.03;5030412;28;20067;-75
2024/03/04 04:23:13;;;;;;;12.80;6.40;;;;;;;-0.39;100.00;100497.53;5006881;28;20128;-74
2024/03/04 04:25:40;;;;;;;13.10;6.30;;;;;;;-0.35;100.00;100501.69;5003242;28;20402;-76
2024/03/04 04:28:08;;;;;;;18.83;6.93;;;;;;;-0.35;100.00;100499.94;5010038;28;20144;-76
2024/03/04 04:30:33;;;;;;;16.97;6.90;;;;;;;-0.45;100.00;100505.66;5001070;28;20071;-77
2024/03/04 04:33:00;;;;;;;17.67;5.83;;;;;;;-0.45;100.00;100497.81;4980688;28;20538;-76
2024/03/04 04:35:25;;;;;;;12.37;6.03;;;;;;;-0.44;100.00;100504.72;5025856;28;20084;-76
2024/03/04 04:37:53;;;;;;;17.30;7.53;;;;;;;-0.41;100.00;100510.66;5008824;28;20524;-75
2024/03/04 04:40:19;;;;;;;15.40;6.10;;;;;;;-0.34;100.00;100504.22;4996789;28;20055;-75
2024/03/04 04:42:45;;;;;;;15.87;6.33;;;;;;;-0.30;100.00;100500.59;5012698;28;20052;-74
2024/03/04 04:45:14;;;;;;;20.20;6.63;;;;;;;-0.20;100.00;100501.84;5009538;28;20045;-76
2024/03/04 04:47:40;;;;;;;26.27;8.23;;;;;;;-0.21;100.00;100497.56;4997407;28;20399;-75
2024/03/04 04:50:06;;;;;;;23.80;6.73;;;;;;;-0.31;100.00;100482.38;5002323;28;20498;-75
2024/03/04 04:52:34;;;;;;;17.70;6.67;;;;;;;-0.15;100.00;100488.59;4995237;28;20068;-78
2024/03/04 04:55:00;;;;;;;21.17;6.77;;;;;;;-0.21;100.00;100492.34;5058001;28;20044;-74
2024/03/04 04:57:26;;;;;;;23.13;7.07;;;;;;;-0.23;100.00;100496.78;5028427;28;20040;-74
2024/03/04 04:59:52;;;;;;;16.93;6.90;;;;;;;-0.24;100.00;100489.88;5044313;28;20376;-75
2024/03/04 05:02:18;;;;;;;12.13;6.13;;;;;;;-0.23;100.00;100486.34;5044764;28;20120;-75
2024/03/04 05:04:44;;;;;;;14.10;6.47;;;;;;;-0.20;100.00;100483.56;5035731;28;20051;-75
2024/03/04 05:07:10;;;;;;;17.73;6.70;;;;;;;-0.15;100.00;100484.22;5048251;28;20094;-74
2024/03/04 05:09:38;;;;;;;13.93;6.33;;;;;;;-0.03;100.00;100488.00;5037669;28;20040;-74
2024/03/04 05:12:04;;;;;;;11.60;6.07;;;;;;;-0.15;100.00;100486.84;5037381;28;20393;-75
2024/03/04 05:14:32;;;;;;;11.20;5.87;;;;;;;-0.15;100.00;100483.38;5045640;28;20073;-75
2024/03/04 05:17:00;;;;;;;17.40;7.10;;;;;;;-0.17;100.00;100483.44;5051952;28;20041;-74
2024/03/04 05:19:34;;;;;;;13.27;6.43;;;;;;;-0.09;100.00;100483.09;5052180;28;20048;-75
2024/03/04 05:22:00;;;;;;;14.63;7.23;;;;;;;-0.03;100.00;100485.41;5034957;28;20048;-75
2024/03/04 05:24:26;;;;;;;14.83;6.77;;;;;;;0.00;100.00;100473.06;5018934;28;20045;-74
2024/03/04 05:26:53;;;;;;;15.23;7.40;;;;;;;0.07;100.00;100478.84;5035369;28;20048;-75
2024/03/04 05:29:20;;;;;;;18.30;7.67;;;;;;;0.13;100.00;100475.09;5020007;28;20045;-75
2024/03/04 05:31:53;;;;;;;14.47;6.73;;;;;;;0.23;100.00;100479.81;5056621;28;20055;-75
2024/03/04 05:34:20;;;;;;;14.90;6.93;;;;;;;0.25;100.00;100474.53;5042386;28;20491;-74
2024/03/04 05:36:48;;;;;;;16.23;7.23;;;;;;;0.37;100.00;100477.38;5026793;28;20044;-74
2024/03/04 05:39:20;;;;;;;14.53;6.60;;;;;;;0.45;100.00;100470.03;5023537;28;20057;-75
2024/03/04 05:41:50;;;;;;;18.13;7.23;;;;;;;0.47;100.00;100477.78;5037800;28;20072;-74
2024/03/04 05:44:16;;;;;;;14.97;7.40;;;;;;;0.39;100.00;100474.69;5003472;28;20483;-75
2024/03/04 05:46:45;;;;;;;13.23;7.13;;;;;;;0.47;100.00;100470.81;4963253;28;20072;-75
2024/03/04 05:49:11;;;;;;;18.37;7.33;;;;;;;0.55;100.00;100463.44;4963026;28;20141;-74
2024/03/04 05:51:41;;;;;;;19.30;7.53;;;;;;;0.64;100.00;100470.81;4963223;28;20488;-75
2024/03/04 05:54:07;;;;;;;16.50;7.20;;;;;;;0.73;100.00;100469.50;4962689;28;20065;-75
2024/03/04 05:56:36;;;;;;;15.57;7.20;;;;;;;0.69;100.00;100473.22;4978604;28;20054;-75
2024/03/04 05:59:01;;;;;;;14.97;7.33;;;;;;;0.79;100.00;100467.44;4995349;28;20568;-75
2024/03/04 06:01:27;;;;;;;18.60;7.43;;;;;;;0.87;100.00;100464.44;4978189;28;20144;-75
2024/03/04 06:03:53;;;;;;;18.97;7.47;;;;;;;0.93;100.00;100457.13;4962360;28;20132;-75
2024/03/04 06:06:19;;;;;;;16.67;7.40;;;;;;;1.08;100.00;100461.59;4946570;28;20192;-75
2024/03/04 06:08:47;;;;;;;15.30;7.33;;;;;;;1.20;100.00;100460.94;4978496;28;20369;-75
2024/03/04 06:11:13;;;;;;;11.63;6.20;;;;;;;1.43;100.00;100465.81;4962446;28;20148;-75
2024/03/04 06:13:40;;;;;;;14.57;6.77;;;;;;;1.71;100.00;100466.06;4978233;28;20049;-75
2024/03/04 06:16:10;;;;;;;15.43;6.03;;;;;;;1.87;100.00;100465.22;4978077;28;20049;-75
2024/03/04 06:18:36;;;;;;;11.33;6.80;;;;;;;2.07;100.00;100460.59;4997011;28;20057;-75
2024/03/04 06:21:03;;;;;;;11.80;6.50;;;;;;;2.39;99.10;100467.50;5035273;28;20083;-75
2024/03/04 06:23:30;;;;;;;13.50;6.20;;;;;;;2.54;95.60;100469.25;5018531;28;20084;-75
2024/03/04 06:25:57;;;;;;;11.00;6.13;;;;;;;2.73;93.11;100467.25;5034585;28;20140;-75
2024/03/04 06:28:25;;;;;;;13.57;6.90;;;;;;;2.84;90.16;100466.63;5018402;28;20135;-75
2024/03/04 06:30:51;;;;;;;9.57;5.70;;;;;;;3.07;89.78;100466.13;5034656;28;20033;-75
2024/03/04 06:33:18;;;;;;;11.67;6.50;;;;;;;3.18;86.64;100461.91;5018439;28;20051;-75
2024/03/04 06:35:43;;;;;;;10.60;6.13;;;;;;;3.36;86.37;100459.97;5034669;28;20044;-75
2024/03/04 06:38:09;;;;;;;9.60;5.73;;;;;;;3.65;84.49;100459.03;5002492;28;20110;-75
2024/03/04 06:40:35;;;;;;;11.50;6.73;;;;;;;3.70;80.55;100456.97;5018687;28;20041;-75
2024/03/04 06:43:01;;;;;;;13.63;6.80;;;;;;;3.69;80.12;100457.91;5018889;28;20044;-75
2024/03/04 06:45:28;;;;;;;10.37;5.73;;;;;;;3.93;83.90;100448.50;5018828;28;20055;-75
2024/03/04 06:47:54;;;;;;;9.47;5.60;;;;;;;4.35;84.17;100461.53;5036843;28;20037;-75
2024/03/04 06:50:20;;;;;;;10.47;5.93;;;;;;;4.61;76.65;100463.31;5021464;28;20037;-75
2024/03/04 06:52:46;;;;;;;12.13;6.63;;;;;;;4.39;72.45;100459.56;5040067;28;20110;-75
2024/03/04 06:55:12;;;;;;;11.37;6.30;;;;;;;4.39;73.16;100451.66;5024372;28;20068;-75
2024/03/04 06:57:40;;;;;;;10.90;5.87;;;;;;;4.60;72.53;100456.38;5025177;28;20060;-75
2024/03/04 07:00:11;;;;;;;14.00;6.80;;;;;;;4.50;69.64;100457.94;5057571;28;20045;-75
2024/03/04 07:02:38;;;;;;;12.47;5.83;;;;;;;4.71;69.19;100463.56;4982721;28;20057;-75
2024/03/04 07:05:04;;;;;;;17.00;7.40;;;;;;;4.54;66.67;100448.88;4981069;28;20531;-76
2024/03/04 07:07:30;;;;;;;13.63;6.47;;;;;;;4.75;69.48;100446.63;4978766;28;20053;-75
2024/03/04 07:09:56;;;;;;;13.97;7.40;;;;;;;4.96;66.47;100453.09;4978494;28;20159;-76
2024/03/04 07:12:22;;;;;;;9.97;6.73;;;;;;;5.17;65.86;100456.91;4980475;28;20046;-76
2024/03/04 07:14:50;;;;;;;9.70;6.00;;;;;;;5.51;65.12;100455.41;4998224;28;20054;-76
2024/03/04 07:17:16;;;;;;;12.90;6.67;;;;;;;5.61;64.32;100454.69;4979203;28;20066;-76
2024/03/04 07:19:47;;;;;;;12.80;6.57;;;;;;;5.80;62.03;100455.06;4946850;28;20116;-76
2024/03/04 07:22:14;;;;;;;12.83;6.67;;;;;;;6.12;60.96;100461.56;4962580;28;20108;-75
2024/03/04 07:24:40;;;;;;;9.77;5.77;;;;;;;6.46;60.19;100452.91;4947083;28;20038;-75
2024/03/04 07:27:08;;;;;;;10.77;6.55;;;;;;;6.61;57.83;100448.31;4947356;28;20064;-76
2024/03/04 07:29:37;;;;;;;11.65;5.72;;;;;;;6.78;57.32;100450.53;4960221;28;20145;-76
2024/03/04 07:32:03;;;;;;;11.48;6.57;;;;;;;7.10;55.52;100462.16;4959448;28;20579;-76
2024/03/04 07:34:29;;;;;;;9.98;5.65;;;;;;;7.48;55.03;100449.50;4944636;28;20055;-76
2024/03/04 07:36:57;;;;;;;9.25;5.68;;;;;;;8.00;53.63;100451.53;4943930;28;20070;-76
2024/03/04 07:39:25;;;;;;;10.18;5.68;;;;;;;8.61;51.40;100453.56;4947237;28;20050;-76
2024/03/04 07:41:52;;;;;;;14.93;6.35;;;;;;;8.78;48.73;100460.97;4962669;28;20065;-76
2024/03/04 07:44:18;;;;;;;11.77;5.85;;;;;;;9.29;48.42;100451.31;4929861;28;20413;-76
2024/03/04 07:46:44;;;;;;;8.52;5.72;;;;;;;9.95;46.56;100442.84;4930042;28;20085;-76
2024/03/04 07:49:10;;;;;;;12.27;6.35;;;;;;;10.45;44.73;100450.84;4946416;28;20046;-76
2024/03/04 07:51:46;;;;;;;16.90;7.90;;;;;;;10.45;41.43;100449.03;4962208;28;20042;-76
2024/03/04 07:54:15;;;;;;;11.23;6.10;;;;;;;10.32;40.82;100443.13;4968115;28;20190;-77
2024/03/04 07:56:42;;;;;;;10.43;6.05;;;;;;;10.73;41.22;100440.22;4948928;28;20053;-76
2024/03/04 07:59:08;;;;;;;11.00;5.97;;;;;;;11.44;39.97;100438.91;4964530;28;20464;-77
2024/03/04 08:01:34;;;;;;;14.50;6.95;;;;;;;12.08;38.67;100437.16;5001720;28;20087;-76
2024/03/04 08:04:00;;;;;;;9.52;5.93;;;;;;;12.59;36.62;100432.03;5055084;28;20135;-76
2024/03/04 08:06:26;;;;;;;7.82;5.25;;;;;;;12.99;35.59;100434.25;5020723;28;20530;-76
2024/03/04 08:08:52;;;;;;;10.95;5.32;;;;;;;13.34;34.07;100429.72;5020942;28;20041;-77
2024/03/04 08:11:18;;;;;;;9.93;4.88;;;;;;;13.87;33.65;100432.19;5004641;28;20044;-76
2024/03/04 08:13:44;;;;;;;9.77;5.10;;;;;;;14.67;32.43;100427.13;5020309;28;20036;-76
2024/03/04 08:16:10;;;;;;;11.02;4.82;;;;;;;15.44;30.90;100423.16;5020392;28;20052;-76
2024/03/04 08:18:36;;;;;;;10.15;5.97;;;;;;;15.96;29.65;100425.19;5020386;28;20056;-76
2024/03/04 08:21:02;;;;;;;12.05;5.65;;;;;;;16.31;29.04;100418.50;5003971;28;20368;-76
2024/03/04 08:23:29;;;;;;;6.85;4.78;;;;;;;16.69;27.87;100417.63;5035769;28;20044;-76
2024/03/04 08:25:55;;;;;;;9.85;5.10;;;;;;;16.98;28.06;100416.88;5020585;28;20036;-76
2024/03/04 08:28:22;;;;;;;10.32;5.15;;;;;;;17.45;27.18;100412.16;5053990;28;20063;-76
2024/03/04 08:30:49;;;;;;;10.55;4.72;;;;;;;17.98;26.13;100415.41;5036992;28;20199;-76
2024/03/04 08:33:16;;;;;;;8.50;4.72;;;;;;;18.52;25.62;100415.03;5020171;28;20045;-77
2024/03/04 08:35:44;;;;;;;6.22;4.35;;;;;;;18.90;24.71;100414.63;5020581;28;20059;-76
2024/03/04 08:38:11;;;;;;;6.40;4.40;;;;;;;19.26;23.57;100407.28;5036892;28;20206;-77
2024/03/04 08:40:37;;;;;;;6.78;4.30;;;;;;;19.81;22.94;100422.63;5036951;28;20080;-76
2024/03/04 08:43:04;;;;;;;9.05;4.55;;;;;;;20.10;22.56;100412.41;5020085;28;20149;-78
2024/03/04 08:45:30;;;;;;;8.27;4.20;;;;;;;20.34;21.67;100412.97;5052859;28;20047;-77
2024/03/04 08:47:56;;;;;;;7.07;4.95;;;;;;;18.99;20.83;100423.44;5020036;28;20064;-77
2024/03/04 08:50:22;;;;;;;10.43;5.25;;;;;;;17.38;21.61;100413.84;5036375;28;20126;-76
2024/03/04 08:52:48;;;;;;;8.25;5.00;;;;;;;16.60;23.84;100414.16;5036005;28;20052;-77
2024/03/04 08:55:15;;;;;;;11.70;5.63;;;;;;;16.15;23.37;100419.41;5019704;28;20098;-75
2024/03/04 08:57:41;;;;;;;7.60;4.97;;;;;;;16.10;24.00;100418.25;5019626;28;20095;-76
2024/03/04 09:00:07;;;;;;;9.23;5.40;;;;;;;16.29;23.55;100425.88;5036207;28;20048;-77
2024/03/04 09:02:33;;;;;;;11.18;4.80;;;;;;;15.77;24.01;100417.56;5053183;28;20055;-76
2024/03/04 09:05:01;;;;;;;11.10;5.28;;;;;;;15.14;24.46;100413.97;5036272;28;20068;-76
2024/03/04 09:07:28;;;;;;;10.68;4.90;;;;;;;15.24;24.95;100402.06;5035869;28;20148;-76
2024/03/04 09:09:54;;;;;;;5.60;4.28;;;;;;;16.22;24.27;100406.97;5019369;28;20080;-76
2024/03/04 09:12:21;;;;;;;10.68;4.80;;;;;;;17.42;23.50;100410.59;5019369;28;20071;-76
2024/03/04 09:14:47;;;;;;;7.25;4.68;;;;;;;18.78;22.50;100418.00;5001654;28;20055;-77
2024/03/04 09:17:17;;;;;;;12.90;5.43;;;;;;;19.69;20.94;100411.59;4986180;28;20041;-77
2024/03/04 09:19:44;;;;;;;10.13;4.43;;;;;;;20.41;20.03;100403.84;5034505;28;20059;-77
2024/03/04 09:22:11;;;;;;;9.95;5.45;;;;;;;21.21;19.74;100411.91;5002851;28;20055;-77
2024/03/04 09:24:44;;;;;;;9.93;5.40;;;;;;;21.64;18.91;100405.88;4995302;28;20377;-77
2024/03/04 09:27:09;;;;;;;;;;;;;;;22.22;18.52;100401.34;4947406;28;20049;-78
2024/03/04 09:29:35;;;;;;;9.30;4.85;;;;;;;22.78;18.17;100402.34;4978658;28;19921;-77
2024/03/04 09:32:01;;;;;;;10.70;5.40;;;;;;;21.93;17.86;100409.97;4978788;28;20045;-77
2024/03/04 09:34:27;;;;;;;12.55;5.35;;;;;;;21.72;18.44;100396.69;4962523;28;20116;-76
2024/03/04 09:36:53;;;;;;;9.68;4.75;;;;;;;21.70;17.87;100398.78;4946459;28;20057;-77
2024/03/04 09:39:19;;;;;;;8.20;4.75;;;;;;;22.06;18.28;100401.84;4962898;28;20088;-77
2024/03/04 09:41:46;;;;;;;9.68;4.60;;;;;;;22.55;17.84;100393.09;4997211;28;20046;-77
2024/03/04 09:44:13;;;;;;;9.93;4.70;;;;;;;22.03;17.63;100388.75;4949794;28;20564;-76
2024/03/04 09:46:40;;;;;;;8.80;4.63;;;;;;;22.21;17.46;100386.16;4981377;28;20068;-76
2024/03/04 09:49:08;;;;;;;12.90;5.18;;;;;;;22.55;17.41;100374.97;4948066;28;20068;-76
2024/03/04 09:51:34;;;;;;;6.00;4.63;;;;;;;23.28;17.36;100389.66;4962587;28;20499;-76
2024/03/04 09:54:01;;;;;;;7.47;4.85;;;;;;;23.64;16.50;100383.50;4962508;28;20129;-76
2024/03/04 09:56:33;;;;;;;7.57;4.95;;;;;;;24.27;16.20;100380.28;4963217;28;20053;-76
2024/03/04 09:58:59;;;;;;;6.32;4.05;;;;;;;24.69;16.00;100376.56;5013516;28;20064;-76
2024/03/04 10:01:25;;;;;;;12.20;5.50;;;;;;;24.77;15.38;100381.69;4978871;28;20060;-76
2024/03/04 10:03:52;;;;;;;8.55;4.43;;;;;;;24.71;15.44;100370.91;5048116;28;20183;-76
2024/03/04 10:06:23;;;;;;;7.30;4.47;;;;;;;24.31;15.90;100372.53;5031063;28;20037;-76
2024/03/04 10:08:49;;;;;;;9.80;4.88;;;;;;;24.65;15.40;100377.22;5022292;28;20200;-77
2024/03/04 10:11:17;;;;;;;8.88;5.30;;;;;;;23.75;15.48;100372.75;5025031;28;20112;-76
2024/03/04 10:13:49;;;;;;;8.48;4.90;;;;;;;22.27;16.11;100363.63;5038147;28;20037;-76
2024/03/04 10:16:16;;;;;;;8.57;4.70;;;;;;;22.05;16.95;100361.47;5052402;28;20049;-76
2024/03/04 10:18:43;;;;;;;6.05;4.55;;;;;;;22.78;16.81;100348.16;5018793;28;20041;-76
2024/03/04 10:21:09;;;;;;;8.07;5.40;;;;;;;23.27;15.92;100350.91;5034641;28;20061;-76
2024/03/04 10:23:40;;;;;;;6.00;4.57;;;;;;;23.75;15.59;100361.88;5015108;28;20524;-76
2024/03/04 10:26:11;;;;;;;6.65;4.25;;;;;;;23.80;15.93;100353.06;5000309;28;20092;-76
2024/03/04 10:28:45;;;;;;;6.10;4.40;;;;;;;23.73;15.45;100358.56;5014875;28;20053;-76
2024/03/04 10:31:13;;;;;;;6.07;4.60;;;;;;;23.50;15.72;100341.28;4997464;28;20053;-76
2024/03/04 10:33:40;;;;;;;6.00;4.15;;;;;;;23.73;15.52;100345.00;4997306;28;20049;-77
2024/03/04 10:36:22;;;;;;;6.40;4.07;;;;;;;23.70;15.69;100347.31;5013779;28;20156;-77
2024/03/04 10:38:52;;;;;;;8.68;4.55;;;;;;;23.70;15.53;100339.19;5030382;28;20549;-76
2024/03/04 10:41:30;;;;;;;7.03;4.47;;;;;;;23.96;15.60;100337.03;4997829;28;20104;-77
2024/03/04 10:43:56;;;;;;;7.68;4.80;;;;;;;24.02;15.50;100335.28;4998225;28;20057;-76
2024/03/04 10:46:23;;;;;;;7.50;5.05;;;;;;;23.77;15.38;100338.06;4997722;28;20064;-76
2024/03/04 10:48:49;;;;;;;7.85;4.70;;;;;;;24.02;15.23;100338.00;4969106;28;20499;-76
2024/03/04 10:51:20;;;;;;;7.72;4.63;;;;;;;23.87;15.28;100338.38;5001647;28;20490;-77
2024/03/04 10:53:46;;;;;;;8.77;4.57;;;;;;;23.16;15.55;100342.63;5002019;28;20498;-76
2024/03/04 10:56:15;;;;;;;8.90;5.50;;;;;;;22.62;16.07;100339.72;4966114;28;20382;-76
2024/03/04 10:58:44;;;;;;;5.43;4.10;;;;;;;22.48;16.21;100332.72;4965595;28;20088;-76
2024/03/04 11:01:17;;;;;;;6.15;4.63;;;;;;;22.14;16.55;100330.41;4985248;28;20616;-77
2024/03/04 11:04:00;;;;;;;7.93;4.40;;;;;;;21.78;16.87;100330.13;4985165;28;20045;-76
2024/03/04 11:06:27;;;;;;;8.48;3.97;;;;;;;21.60;16.61;100322.69;4985249;28;20495;-76
2024/03/04 11:08:55;;;;;;;4.60;4.05;;;;;;;20.68;16.31;100331.88;4984800;28;20041;-76
2024/03/04 11:11:45;;;;;;;6.68;4.03;;;;;;;20.79;17.36;100315.88;5018119;28;20053;-76
2024/03/04 11:14:32;;;;;;;5.45;4.05;;;;;;;21.37;17.05;100317.72;5018390;28;20049;-76
2024/03/04 11:17:20;;;;;;;5.65;3.72;;;;;;;21.85;16.92;100312.84;5001196;28;20175;-76
2024/03/04 11:19:52;;;;;;;;;;;;;;;21.86;16.92;100317.22;4985589;28;20052;-76